Time;durP1;ratioP1;P1;durP2;ratioP2;P2;SDS_P1;SDS_P2;PMS_P1;PMS_P2;Temp;Humidity;BMP_temperature;BMP_pressure;BME280_temperature;BME280_humidity;BME280_pressure;Samples;Min_cycle;Max_cycle;Signal;HPM_P1;HPM_P2
2021/11/13 00:01:49;;;;;;;18.50;12.00;;;8.20;99.90;;;;;;5029945;28;20033;-91
2021/11/13 00:04:15;;;;;;;16.00;9.63;;;8.20;99.90;;;;;;5030168;28;20026;-91
2021/11/13 00:06:41;;;;;;;20.77;11.25;;;8.20;99.90;;;;;;5065501;28;20047;-90
2021/11/13 00:09:10;;;;;;;16.33;10.88;;;8.10;99.90;;;;;;5052971;28;20032;-95
2021/11/13 00:11:37;;;;;;;19.95;12.05;;;8.10;99.90;;;;;;5053535;28;20029;-91
2021/11/13 00:14:03;;;;;;;17.27;10.98;;;8.20;99.90;;;;;;5069198;28;20072;-91
2021/11/13 00:16:34;;;;;;;16.02;9.40;;;8.20;99.90;;;;;;5032926;28;20063;-89
2021/11/13 00:18:59;;;;;;;14.18;9.65;;;8.10;99.90;;;;;;5049585;28;20101;-90
2021/11/13 00:21:27;;;;;;;15.15;9.80;;;8.10;99.90;;;;;;5049352;28;20025;-91
2021/11/13 00:23:53;;;;;;;13.82;10.35;;;8.20;99.90;;;;;;5045179;28;20477;-88
2021/11/13 00:26:19;;;;;;;18.90;11.68;;;8.20;99.90;;;;;;5046279;28;20034;-89
2021/11/13 00:28:44;;;;;;;17.50;11.82;;;8.20;99.90;;;;;;5009696;28;20510;-89
2021/11/13 00:31:10;;;;;;;20.90;12.75;;;8.20;99.90;;;;;;5009902;28;20037;-89
2021/11/13 00:33:37;;;;;;;20.88;13.57;;;8.20;99.90;;;;;;5009973;28;20029;-93
2021/11/13 00:36:03;;;;;;;19.63;13.05;;;8.20;99.90;;;;;;4993604;28;20048;-90
2021/11/13 00:38:28;;;;;;;22.23;13.40;;;8.20;99.90;;;;;;5009953;28;20375;-89
2021/11/13 00:40:54;;;;;;;21.52;13.75;;;8.20;99.90;;;;;;4993677;28;20034;-88
2021/11/13 00:43:21;;;;;;;15.18;10.90;;;8.20;99.90;;;;;;4993422;28;20018;-90
2021/11/13 00:46:07;;;;;;;18.23;10.50;;;8.20;99.90;;;;;;5040919;28;20033;-89
2021/11/13 00:48:33;;;;;;;18.90;11.70;;;8.20;99.90;;;;;;4934273;29;20200;-90
2021/11/13 00:50:58;;;;;;;19.50;12.52;;;8.20;99.90;;;;;;4950236;29;20051;-89
2021/11/13 00:53:24;;;;;;;18.10;11.77;;;8.20;99.90;;;;;;4950089;29;20071;-89
2021/11/13 00:55:50;;;;;;;25.45;15.60;;;8.20;99.90;;;;;;4966425;29;20051;-88
2021/11/13 00:58:16;;;;;;;25.52;14.00;;;8.30;99.90;;;;;;4966288;29;20042;-88
2021/11/13 01:00:42;;;;;;;25.15;15.45;;;8.30;99.90;;;;;;4935464;29;20039;-88
2021/11/13 01:03:08;;;;;;;24.63;14.45;;;8.30;99.90;;;;;;4934215;29;20038;-90
2021/11/13 01:05:34;;;;;;;25.60;15.23;;;8.30;99.90;;;;;;4931174;29;20036;-89
2021/11/13 01:07:59;;;;;;;18.80;12.35;;;8.30;99.90;;;;;;4946782;29;20103;-90
2021/11/13 01:10:25;;;;;;;24.77;14.35;;;8.20;99.90;;;;;;4946948;29;20039;-89
2021/11/13 01:12:51;;;;;;;23.88;14.50;;;8.20;99.90;;;;;;4933653;29;20042;-90
2021/11/13 01:15:18;;;;;;;24.10;15.10;;;8.30;99.90;;;;;;4943857;29;20035;-89
2021/11/13 01:17:49;;;;;;;20.10;12.98;;;8.20;99.90;;;;;;4965559;29;20047;-88
2021/11/13 01:20:16;;;;;;;19.50;12.27;;;8.30;99.90;;;;;;4950229;29;20098;-93
2021/11/13 01:22:42;;;;;;;27.70;15.30;;;8.30;99.90;;;;;;4965746;29;20035;-89
2021/11/13 01:25:09;;;;;;;24.52;15.85;;;8.30;99.90;;;;;;4971491;28;20056;-89
2021/11/13 01:27:34;;;;;;;27.10;15.35;;;8.30;99.90;;;;;;5028479;28;20049;-89
2021/11/13 01:30:00;;;;;;;22.02;13.10;;;8.30;99.90;;;;;;5028323;28;20133;-89
2021/11/13 01:32:27;;;;;;;22.35;14.77;;;8.30;99.90;;;;;;5028663;28;20083;-91
2021/11/13 01:34:53;;;;;;;29.35;15.88;;;8.30;99.90;;;;;;5028044;28;20100;-89
2021/11/13 01:37:18;;;;;;;26.50;16.63;;;8.30;99.90;;;;;;5028454;28;20038;-88
2021/11/13 01:39:45;;;;;;;25.35;14.18;;;8.30;99.90;;;;;;5028443;28;20071;-90
2021/11/13 01:42:11;;;;;;;24.58;15.52;;;8.30;99.90;;;;;;5031282;28;20036;-90
2021/11/13 01:44:38;;;;;;;23.45;15.48;;;8.30;99.90;;;;;;5031796;28;20036;-89
2021/11/13 01:47:04;;;;;;;22.27;14.88;;;8.30;99.90;;;;;;5031648;28;20033;-92
2021/11/13 01:49:30;;;;;;;20.60;13.80;;;8.30;99.90;;;;;;5031351;28;20029;-93
2021/11/13 01:51:56;;;;;;;22.63;15.07;;;8.30;99.90;;;;;;5031711;28;20029;-90
2021/11/13 01:54:22;;;;;;;20.40;13.23;;;8.40;99.90;;;;;;5031572;28;20028;-92
2021/11/13 01:56:51;;;;;;;20.38;13.43;;;8.40;99.90;;;;;;5031489;28;20079;-91
2021/11/13 01:59:18;;;;;;;23.25;15.32;;;8.30;99.90;;;;;;5048495;28;20032;-90
2021/11/13 02:01:45;;;;;;;22.63;14.18;;;8.40;99.90;;;;;;5031841;28;20036;-89
2021/11/13 02:04:10;;;;;;;21.85;14.20;;;8.40;99.90;;;;;;5031668;28;20055;-90
2021/11/13 02:06:36;;;;;;;18.40;11.77;;;8.40;99.90;;;;;;5034759;28;20043;-91
2021/11/13 02:09:03;;;;;;;17.17;12.32;;;8.40;99.90;;;;;;5051036;28;20060;-89
2021/11/13 02:11:29;;;;;;;21.67;13.15;;;8.40;99.90;;;;;;5052089;28;20401;-90
2021/11/13 02:13:59;;;;;;;19.45;12.05;;;8.40;99.90;;;;;;5051221;28;20028;-89
2021/11/13 02:16:26;;;;;;;21.38;13.07;;;8.40;99.90;;;;;;5051183;28;20040;-89
2021/11/13 02:18:52;;;;;;;16.80;11.50;;;8.40;99.90;;;;;;5067831;28;20058;-90
2021/11/13 02:21:18;;;;;;;17.50;11.27;;;8.40;99.90;;;;;;5067876;28;20103;-87
2021/11/13 02:23:48;;;;;;;13.63;9.93;;;8.40;99.90;;;;;;5084505;28;20035;-88
2021/11/13 02:26:14;;;;;;;15.15;10.52;;;8.40;99.90;;;;;;5067588;28;20304;-88
2021/11/13 02:28:40;;;;;;;17.10;11.55;;;8.50;99.90;;;;;;5067468;28;20056;-89
2021/11/13 02:31:09;;;;;;;12.85;8.40;;;8.50;99.90;;;;;;5067955;28;20020;-90
2021/11/13 02:33:36;;;;;;;14.75;10.38;;;8.50;99.90;;;;;;5051162;28;20104;-87
2021/11/13 02:36:04;;;;;;;12.93;8.85;;;8.50;99.90;;;;;;5050843;28;20070;-87
2021/11/13 02:38:36;;;;;;;11.18;7.55;;;8.50;99.90;;;;;;5050894;28;20040;-87
2021/11/13 02:41:06;;;;;;;10.13;7.13;;;8.50;99.90;;;;;;5055116;28;20029;-87
2021/11/13 02:43:33;;;;;;;13.32;8.48;;;8.50;99.90;;;;;;5031146;28;20033;-87
2021/11/13 02:46:19;;;;;;;12.60;8.13;;;8.50;99.90;;;;;;5031179;28;20028;-87
2021/11/13 02:48:47;;;;;;;12.55;9.05;;;8.50;99.90;;;;;;4955795;28;20042;-86
2021/11/13 02:51:13;;;;;;;12.75;8.85;;;8.50;99.90;;;;;;4988038;28;20043;-87
2021/11/13 02:53:39;;;;;;;12.05;8.70;;;8.50;99.90;;;;;;4971662;28;20066;-86
2021/11/13 02:56:06;;;;;;;12.02;7.93;;;8.50;99.90;;;;;;4955217;28;20050;-83
2021/11/13 02:58:34;;;;;;;13.05;9.07;;;8.50;99.90;;;;;;4955503;28;20038;-86
2021/11/13 03:01:09;;;;;;;11.93;8.15;;;8.60;99.90;;;;;;4971437;28;20114;-85
2021/11/13 03:03:35;;;;;;;12.80;8.98;;;8.60;99.90;;;;;;4955575;28;20035;-85
2021/11/13 03:06:01;;;;;;;11.75;8.23;;;8.60;99.90;;;;;;4968112;29;20046;-86
2021/11/13 03:08:32;;;;;;;15.65;10.85;;;8.60;99.90;;;;;;4944247;28;20027;-86
2021/11/13 03:11:00;;;;;;;15.80;10.75;;;8.70;99.90;;;;;;4971303;28;20051;-86
2021/11/13 03:13:29;;;;;;;16.63;11.75;;;8.60;99.90;;;;;;4955352;28;20042;-85
2021/11/13 03:15:58;;;;;;;15.63;11.50;;;8.70;99.90;;;;;;4989676;28;20039;-86
2021/11/13 03:18:23;;;;;;;14.43;10.05;;;8.70;99.90;;;;;;4990548;28;20042;-85
2021/11/13 03:20:49;;;;;;;16.75;10.48;;;8.60;99.90;;;;;;4974235;28;20041;-85
2021/11/13 03:23:17;;;;;;;13.15;9.05;;;8.70;99.90;;;;;;4974341;28;20058;-85
2021/11/13 03:26:00;;;;;;;13.68;9.35;;;8.70;99.90;;;;;;5010276;28;20554;-85
2021/11/13 03:28:29;;;;;;;21.13;13.57;;;8.80;99.90;;;;;;5070278;28;20076;-86
2021/11/13 03:30:55;;;;;;;18.02;11.23;;;8.80;99.90;;;;;;5053676;28;20024;-86
2021/11/13 03:33:21;;;;;;;17.90;11.35;;;8.80;99.90;;;;;;5053756;28;20058;-85
2021/11/13 03:35:47;;;;;;;14.77;9.88;;;8.80;99.90;;;;;;5053413;28;20029;-84
2021/11/13 03:38:16;;;;;;;16.55;11.85;;;8.80;99.90;;;;;;5063189;28;20033;-85
2021/11/13 03:40:44;;;;;;;16.35;11.63;;;8.80;99.90;;;;;;5033720;28;20025;-84
2021/11/13 03:43:10;;;;;;;19.40;13.15;;;8.80;99.90;;;;;;5033724;28;20041;-85
2021/11/13 03:45:37;;;;;;;18.95;12.80;;;8.80;99.90;;;;;;5033459;28;20115;-84
2021/11/13 03:48:03;;;;;;;21.75;13.48;;;8.80;99.90;;;;;;5044958;23;20068;-85
2021/11/13 03:50:29;;;;;;;20.23;13.57;;;8.90;99.90;;;;;;5013866;28;20213;-84
2021/11/13 03:52:56;;;;;;;19.98;13.10;;;8.90;99.90;;;;;;5030202;28;20040;-85
2021/11/13 03:55:23;;;;;;;19.30;12.40;;;8.90;99.90;;;;;;5030059;28;20033;-85
2021/11/13 03:57:49;;;;;;;20.63;15.07;;;8.90;99.90;;;;;;5012955;28;20041;-86
2021/11/13 04:00:16;;;;;;;18.90;12.98;;;8.90;99.90;;;;;;5014120;28;20040;-86
2021/11/13 04:02:44;;;;;;;23.77;14.88;;;8.90;99.90;;;;;;5030130;28;20383;-85
2021/11/13 04:05:10;;;;;;;21.83;15.20;;;9.00;99.90;;;;;;5033050;28;20040;-85
2021/11/13 04:07:36;;;;;;;26.05;17.15;;;9.00;99.90;;;;;;5029656;28;20021;-85
2021/11/13 04:10:06;;;;;;;21.50;14.05;;;9.00;99.90;;;;;;5013467;28;20486;-87
2021/11/13 04:12:32;;;;;;;22.77;15.10;;;9.00;99.90;;;;;;5013400;28;20098;-84
2021/11/13 04:14:57;;;;;;;22.13;15.20;;;9.00;99.90;;;;;;5013176;28;20030;-83
2021/11/13 04:17:23;;;;;;;22.10;14.38;;;9.00;99.90;;;;;;5012598;28;20052;-83
2021/11/13 04:19:49;;;;;;;18.73;13.68;;;9.00;99.90;;;;;;5012962;28;20413;-84
2021/11/13 04:22:14;;;;;;;20.48;13.98;;;9.00;99.90;;;;;;5029221;28;20065;-84
2021/11/13 04:24:40;;;;;;;22.50;14.05;;;9.10;99.90;;;;;;5009606;28;20021;-84
2021/11/13 04:27:07;;;;;;;24.83;14.85;;;9.10;99.90;;;;;;5026015;28;20068;-84
2021/11/13 04:29:33;;;;;;;22.80;13.98;;;9.10;99.90;;;;;;4993507;28;20032;-85
2021/11/13 04:32:00;;;;;;;20.75;15.60;;;9.10;99.90;;;;;;5025912;28;20081;-85
2021/11/13 04:34:28;;;;;;;20.48;13.15;;;9.10;99.90;;;;;;5026010;28;20459;-85
2021/11/13 04:36:55;;;;;;;22.80;13.02;;;9.10;99.90;;;;;;5023235;28;20049;-85
2021/11/13 04:39:25;;;;;;;21.98;14.77;;;9.10;99.90;;;;;;5012818;28;20026;-84
2021/11/13 04:41:53;;;;;;;19.27;13.65;;;9.10;99.90;;;;;;5028970;28;20092;-84
2021/11/13 04:44:19;;;;;;;20.30;14.15;;;9.20;99.90;;;;;;5029320;28;20363;-84
2021/11/13 04:46:45;;;;;;;17.02;11.32;;;9.10;99.90;;;;;;5012296;28;20377;-84
2021/11/13 04:49:22;;;;;;;16.58;12.20;;;9.10;99.90;;;;;;5012898;28;20041;-84
2021/11/13 04:51:48;;;;;;;19.20;12.77;;;9.10;99.90;;;;;;5012536;28;20029;-84
2021/11/13 04:54:14;;;;;;;14.90;10.20;;;9.20;99.90;;;;;;5012472;28;20040;-85
2021/11/13 04:56:40;;;;;;;18.23;11.35;;;9.10;99.90;;;;;;5012238;28;20045;-83
2021/11/13 04:59:06;;;;;;;15.88;11.43;;;9.20;99.90;;;;;;5012332;28;20021;-84
2021/11/13 05:01:32;;;;;;;18.33;12.10;;;9.20;99.90;;;;;;5012440;28;20030;-84
2021/11/13 05:03:58;;;;;;;15.57;10.77;;;9.20;99.90;;;;;;5012113;28;20089;-84
2021/11/13 05:06:25;;;;;;;19.90;13.27;;;9.10;99.90;;;;;;5025361;28;20033;-85
2021/11/13 05:08:50;;;;;;;19.48;12.65;;;9.20;99.90;;;;;;5028500;28;20097;-84
2021/11/13 05:11:16;;;;;;;17.00;12.88;;;9.20;99.90;;;;;;5027803;28;20044;-85
2021/11/13 05:13:42;;;;;;;17.88;12.65;;;9.20;99.90;;;;;;5028579;28;20128;-84
2021/11/13 05:16:07;;;;;;;15.73;11.20;;;9.10;99.90;;;;;;5028195;28;20048;-82
2021/11/13 05:18:33;;;;;;;16.73;12.07;;;9.20;99.90;;;;;;5046116;28;20060;-84
2021/11/13 05:20:58;;;;;;;14.52;10.68;;;9.20;99.90;;;;;;5028514;28;20037;-85
2021/11/13 05:23:24;;;;;;;15.98;11.27;;;9.20;99.90;;;;;;5028451;28;20091;-85
2021/11/13 05:25:51;;;;;;;17.77;11.43;;;9.20;99.90;;;;;;5028638;28;20033;-85
2021/11/13 05:28:16;;;;;;;14.50;10.38;;;9.30;99.90;;;;;;5044498;28;20029;-85
2021/11/13 05:30:42;;;;;;;13.30;10.02;;;9.20;99.90;;;;;;5028479;28;20048;-86
2021/11/13 05:33:08;;;;;;;14.48;9.02;;;9.30;99.90;;;;;;5028199;28;20044;-85
2021/11/13 05:35:33;;;;;;;13.65;10.18;;;9.30;99.90;;;;;;5044967;28;20034;-84
2021/11/13 05:37:59;;;;;;;16.83;9.27;;;9.30;99.90;;;;;;5013126;28;20037;-85
2021/11/13 05:40:24;;;;;;;12.75;8.98;;;9.20;99.90;;;;;;5044878;28;20502;-85
2021/11/13 05:42:52;;;;;;;14.10;10.70;;;9.30;99.90;;;;;;5044453;28;20057;-86
2021/11/13 05:45:18;;;;;;;14.82;9.73;;;9.30;99.90;;;;;;5011762;28;20484;-84
2021/11/13 05:47:44;;;;;;;12.43;9.35;;;9.30;99.90;;;;;;5027784;28;20049;-84
2021/11/13 05:50:12;;;;;;;11.93;7.57;;;9.30;99.90;;;;;;5028138;28;20025;-84
2021/11/13 05:52:40;;;;;;;13.05;8.70;;;9.30;99.90;;;;;;5011972;28;20080;-87
2021/11/13 05:55:06;;;;;;;13.45;9.23;;;9.30;99.90;;;;;;5028298;28;20065;-84
2021/11/13 05:57:31;;;;;;;12.77;9.65;;;9.30;99.90;;;;;;5027789;28;20049;-85
2021/11/13 05:59:57;;;;;;;11.95;8.85;;;9.30;99.90;;;;;;5028092;28;20029;-84
2021/11/13 06:02:23;;;;;;;13.85;10.18;;;9.20;99.90;;;;;;5024544;28;20037;-85
2021/11/13 06:04:49;;;;;;;18.27;12.63;;;9.20;99.90;;;;;;5012313;28;20021;-84
2021/11/13 06:07:15;;;;;;;12.07;8.90;;;9.30;99.90;;;;;;5028097;28;20116;-83
2021/11/13 06:09:41;;;;;;;17.13;11.43;;;9.30;99.90;;;;;;5044338;28;20044;-84
2021/11/13 06:12:07;;;;;;;15.65;10.45;;;9.30;99.90;;;;;;5028030;28;20100;-91
2021/11/13 06:14:32;;;;;;;18.67;12.85;;;9.30;99.90;;;;;;5009313;28;20034;-90
2021/11/13 06:16:58;;;;;;;16.80;13.25;;;9.30;99.90;;;;;;5024746;28;20065;-90
2021/11/13 06:19:24;;;;;;;17.02;13.10;;;9.30;99.90;;;;;;5008267;28;20032;-90
2021/11/13 06:21:50;;;;;;;18.10;12.60;;;9.30;99.90;;;;;;4993964;28;20088;-90
2021/11/13 06:24:15;;;;;;;14.45;10.52;;;9.30;99.90;;;;;;5012186;28;20106;-86
2021/11/13 06:26:41;;;;;;;17.10;11.20;;;9.30;99.90;;;;;;5012193;28;20038;-86
2021/11/13 06:29:08;;;;;;;16.58;10.63;;;9.30;99.90;;;;;;5011398;28;20029;-86
2021/11/13 06:31:35;;;;;;;14.77;10.40;;;9.30;99.90;;;;;;5014361;28;20021;-84
2021/11/13 06:34:00;;;;;;;10.68;7.63;;;9.30;99.90;;;;;;5014766;28;20041;-87
2021/11/13 06:36:26;;;;;;;13.55;8.45;;;9.30;99.90;;;;;;5015260;28;20033;-85
2021/11/13 06:38:52;;;;;;;12.50;9.45;;;9.30;99.90;;;;;;5014883;28;20030;-84
2021/11/13 06:41:18;;;;;;;13.98;10.55;;;9.30;99.90;;;;;;5015142;28;20034;-85
2021/11/13 06:43:43;;;;;;;15.13;11.40;;;9.30;99.90;;;;;;5048621;28;20052;-85
2021/11/13 06:46:09;;;;;;;15.23;11.63;;;9.30;99.90;;;;;;5014868;28;20033;-85
2021/11/13 06:48:35;;;;;;;16.30;12.20;;;9.30;99.90;;;;;;5014446;28;20049;-84
2021/11/13 06:51:00;;;;;;;14.25;11.00;;;9.20;99.90;;;;;;5014789;28;20040;-86
2021/11/13 06:53:26;;;;;;;13.95;10.32;;;9.30;99.90;;;;;;5031340;28;20029;-85
2021/11/13 06:55:52;;;;;;;12.93;9.52;;;9.20;99.90;;;;;;5014273;28;20036;-85
2021/11/13 06:58:17;;;;;;;12.70;8.43;;;9.20;99.90;;;;;;5014029;28;20063;-85
2021/11/13 07:00:43;;;;;;;12.07;6.70;;;9.20;99.90;;;;;;5014406;28;20093;-85
2021/11/13 07:03:14;;;;;;;9.68;6.68;;;9.20;99.90;;;;;;5015226;28;20061;-85
2021/11/13 07:05:40;;;;;;;10.90;6.68;;;9.20;99.90;;;;;;5027475;28;20030;-87
2021/11/13 07:08:05;;;;;;;9.57;7.40;;;9.10;99.90;;;;;;5027490;28;20037;-85
2021/11/13 07:10:31;;;;;;;11.30;8.15;;;9.20;99.90;;;;;;5010991;28;20041;-84
2021/11/13 07:12:57;;;;;;;10.70;7.40;;;9.20;99.90;;;;;;5010368;28;20057;-85
2021/11/13 07:15:26;;;;;;;11.23;7.47;;;9.10;99.90;;;;;;5010367;28;20033;-85
2021/11/13 07:17:52;;;;;;;10.35;7.47;;;9.20;99.90;;;;;;5010513;28;20034;-84
2021/11/13 07:20:18;;;;;;;11.00;7.10;;;9.30;99.90;;;;;;5010284;28;20029;-84
2021/11/13 07:22:45;;;;;;;10.15;7.28;;;9.30;99.90;;;;;;5010131;28;20045;-85
2021/11/13 07:25:15;;;;;;;9.52;7.25;;;9.30;99.90;;;;;;5010189;28;20030;-85
2021/11/13 07:27:45;;;;;;;9.65;6.63;;;9.30;99.90;;;;;;5010238;28;20037;-84
2021/11/13 07:30:13;;;;;;;;;;;9.30;99.90;;;;;;5023280;28;20128;-85
2021/11/13 07:32:38;;;;;;;9.55;6.35;;;9.30;99.90;;;;;;5012382;28;19909;-84
2021/11/13 07:35:04;;;;;;;8.45;6.15;;;9.40;99.90;;;;;;5029579;28;20481;-84
2021/11/13 07:37:35;;;;;;;8.10;6.07;;;9.40;99.90;;;;;;5013321;28;20504;-84
2021/11/13 07:40:00;;;;;;;8.57;6.05;;;9.40;99.90;;;;;;5013335;28;20044;-86
2021/11/13 07:42:26;;;;;;;9.55;6.50;;;9.40;99.90;;;;;;5046361;28;20081;-86
2021/11/13 07:44:52;;;;;;;9.05;6.43;;;9.40;99.90;;;;;;5029387;28;20104;-85
2021/11/13 07:47:18;;;;;;;7.80;6.15;;;9.50;99.90;;;;;;5046859;28;20045;-84
2021/11/13 07:49:43;;;;;;;7.03;4.95;;;9.50;99.90;;;;;;5029197;28;20030;-85
2021/11/13 07:52:09;;;;;;;7.28;5.25;;;9.50;99.90;;;;;;5029364;28;20151;-85
2021/11/13 07:54:35;;;;;;;9.60;6.32;;;9.50;99.90;;;;;;5029177;28;20458;-84
2021/11/13 07:57:01;;;;;;;9.18;7.43;;;9.50;99.90;;;;;;5029002;28;20101;-84
2021/11/13 07:59:26;;;;;;;9.20;7.63;;;9.50;99.90;;;;;;5029283;28;20037;-84
2021/11/13 08:01:52;;;;;;;12.05;8.32;;;9.50;99.90;;;;;;5029054;28;20029;-85
2021/11/13 08:04:18;;;;;;;10.82;8.07;;;9.50;99.90;;;;;;5009148;28;20028;-85
2021/11/13 08:06:43;;;;;;;11.70;8.68;;;9.50;99.90;;;;;;5028514;28;20033;-84
2021/11/13 08:09:09;;;;;;;12.80;9.38;;;9.60;99.90;;;;;;5036551;28;20029;-84
2021/11/13 08:11:35;;;;;;;13.10;9.25;;;9.60;99.90;;;;;;5024959;28;20140;-86
2021/11/13 08:14:05;;;;;;;12.88;9.07;;;9.70;99.90;;;;;;5012496;28;20017;-85
2021/11/13 08:16:31;;;;;;;20.13;9.52;;;9.70;99.90;;;;;;5012211;28;20041;-85
2021/11/13 08:18:57;;;;;;;12.50;9.70;;;9.70;99.90;;;;;;5012521;28;20374;-85
2021/11/13 08:21:23;;;;;;;14.15;9.90;;;9.70;99.90;;;;;;5012217;28;20041;-86
2021/11/13 08:23:51;;;;;;;13.52;10.13;;;9.70;99.90;;;;;;5013044;28;20040;-85
2021/11/13 08:26:18;;;;;;;13.02;9.77;;;9.80;99.90;;;;;;5019456;28;20017;-86
2021/11/13 08:28:43;;;;;;;14.10;9.50;;;9.80;99.90;;;;;;5036310;28;20026;-85
2021/11/13 08:31:09;;;;;;;12.80;9.90;;;9.80;99.90;;;;;;5028596;28;20160;-85
2021/11/13 08:33:34;;;;;;;13.13;10.82;;;9.80;99.90;;;;;;5028758;28;20493;-86
2021/11/13 08:36:00;;;;;;;13.32;9.93;;;9.90;99.90;;;;;;5028623;28;20033;-86
2021/11/13 08:38:26;;;;;;;11.23;8.32;;;9.90;99.90;;;;;;5046370;28;20048;-87
2021/11/13 08:40:55;;;;;;;14.27;10.85;;;9.90;99.90;;;;;;5011866;28;20045;-86
2021/11/13 08:43:21;;;;;;;13.55;10.63;;;10.00;99.90;;;;;;5011802;28;20037;-86
2021/11/13 08:46:07;;;;;;;15.57;11.50;;;10.00;99.90;;;;;;5011327;28;20021;-86
2021/11/13 08:48:32;;;;;;;13.20;9.80;;;10.10;99.90;;;;;;4987784;28;20050;-86
2021/11/13 08:50:58;;;;;;;14.65;10.32;;;10.00;99.90;;;;;;4971849;28;20486;-87
2021/11/13 08:53:24;;;;;;;15.98;11.65;;;10.00;99.90;;;;;;4971989;28;20038;-86
2021/11/13 08:55:50;;;;;;;13.68;10.48;;;10.00;99.90;;;;;;4968422;28;20033;-86
2021/11/13 08:58:16;;;;;;;12.85;10.40;;;10.00;99.90;;;;;;4952765;28;20097;-87
2021/11/13 09:00:56;;;;;;;14.88;10.70;;;10.00;99.90;;;;;;4968776;28;20150;-86
2021/11/13 09:03:40;;;;;;;13.30;9.82;;;10.10;99.90;;;;;;4984983;28;20051;-87
2021/11/13 09:06:09;;;;;;;12.07;9.50;;;10.20;99.90;;;;;;4984419;28;20058;-87
2021/11/13 09:08:37;;;;;;;12.40;9.77;;;10.20;99.90;;;;;;4968242;28;20031;-87
2021/11/13 09:11:04;;;;;;;13.85;10.10;;;10.30;99.90;;;;;;4968382;28;20073;-86
2021/11/13 09:13:30;;;;;;;11.25;8.85;;;10.30;99.90;;;;;;4968646;28;20058;-85
2021/11/13 09:16:00;;;;;;;14.25;10.00;;;10.30;99.90;;;;;;4970284;28;20061;-87
2021/11/13 09:18:27;;;;;;;13.68;10.63;;;10.30;99.90;;;;;;4971309;28;20166;-87
2021/11/13 09:20:53;;;;;;;14.32;10.73;;;10.30;99.90;;;;;;4987763;28;20117;-86
2021/11/13 09:23:19;;;;;;;13.25;9.15;;;10.40;99.90;;;;;;4971591;28;20030;-86
2021/11/13 09:25:45;;;;;;;14.52;10.65;;;10.50;99.90;;;;;;4989822;28;20479;-87
2021/11/13 09:28:11;;;;;;;17.45;11.38;;;10.60;99.90;;;;;;5001550;28;20045;-89
2021/11/13 09:30:38;;;;;;;14.20;10.23;;;10.70;99.90;;;;;;5011189;28;20025;-89
2021/11/13 09:33:06;;;;;;;12.90;9.43;;;10.90;99.90;;;;;;5027640;28;20037;-89
2021/11/13 09:35:32;;;;;;;14.35;10.27;;;10.90;99.90;;;;;;5011146;28;20037;-87
2021/11/13 09:37:58;;;;;;;15.57;11.90;;;10.90;99.90;;;;;;5011562;28;20052;-88
2021/11/13 09:40:26;;;;;;;14.98;10.80;;;10.90;99.90;;;;;;5011422;28;20033;-88
2021/11/13 09:42:55;;;;;;;13.57;10.38;;;10.90;99.90;;;;;;5027682;28;20038;-92
2021/11/13 09:45:22;;;;;;;15.23;10.93;;;10.90;99.90;;;;;;5011378;28;20120;-90
2021/11/13 09:47:50;;;;;;;16.05;11.50;;;11.00;99.90;;;;;;5044612;28;20057;-90
2021/11/13 09:50:17;;;;;;;13.70;10.70;;;10.90;99.90;;;;;;5026952;28;20093;-90
2021/11/13 09:52:43;;;;;;;17.05;11.05;;;11.00;99.90;;;;;;5044485;28;20029;-89
2021/11/13 09:55:11;;;;;;;15.93;11.63;;;11.00;99.90;;;;;;5010903;28;20040;-89
2021/11/13 09:57:37;;;;;;;16.67;12.00;;;11.00;99.90;;;;;;5014150;28;20482;-89
2021/11/13 10:00:10;;;;;;;17.20;11.68;;;11.00;99.90;;;;;;5031685;28;20529;-89
2021/11/13 10:02:37;;;;;;;9.27;7.05;;;11.00;99.90;;;;;;5031691;28;20029;-88
2021/11/13 10:05:03;;;;;;;14.95;10.90;;;11.00;99.90;;;;;;5049301;28;20041;-89
2021/11/13 10:07:32;;;;;;;15.25;10.80;;;10.90;99.90;;;;;;5015319;28;20037;-90
2021/11/13 10:09:59;;;;;;;14.33;10.37;;;11.10;99.90;;;;;;5014765;28;20097;-88
2021/11/13 10:12:38;;;;;;;15.43;10.77;;;11.00;99.90;;;;;;5031518;28;20152;-90
2021/11/13 10:15:23;;;;;;;15.98;11.73;;;11.00;99.90;;;;;;5020059;28;20037;-89
2021/11/13 10:18:22;;;;;;;17.55;11.38;;;11.00;99.90;;;;;;5011480;28;20353;-90
2021/11/13 10:21:14;;;;;;;15.80;11.00;;;11.10;99.90;;;;;;5020320;28;20132;-88
2021/11/13 10:23:46;;;;;;;16.67;11.27;;;11.00;99.90;;;;;;5015125;28;20292;-88
2021/11/13 10:26:23;;;;;;;15.10;10.88;;;11.10;99.90;;;;;;5015224;28;20474;-88
2021/11/13 10:28:55;;;;;;;13.60;9.88;;;11.10;99.90;;;;;;5015521;28;20025;-89
2021/11/13 10:31:26;;;;;;;13.48;9.90;;;11.10;99.90;;;;;;5050146;28;20049;-88
2021/11/13 10:33:53;;;;;;;;;;;11.10;99.90;;;;;;5031258;28;20344;-87
2021/11/13 10:36:30;;;;;;;11.15;6.85;;;11.10;99.90;;;;;;5047066;28;19917;-88
2021/11/13 10:39:04;;;;;;;14.85;9.55;;;11.10;99.90;;;;;;5014550;28;20045;-88
2021/11/13 10:41:30;;;;;;;12.40;9.80;;;11.20;99.90;;;;;;5014568;28;20037;-86
2021/11/13 10:43:56;;;;;;;15.13;9.65;;;11.20;99.90;;;;;;5014507;28;20033;-88
2021/11/13 10:46:24;;;;;;;15.60;10.68;;;11.20;99.90;;;;;;5014314;28;20056;-88
2021/11/13 10:48:58;;;;;;;15.55;10.00;;;11.30;99.90;;;;;;5014052;28;20053;-88
2021/11/13 10:51:33;;;;;;;14.02;10.15;;;11.20;99.90;;;;;;5014062;28;20033;-88
2021/11/13 10:54:18;;;;;;;12.05;8.38;;;11.20;99.90;;;;;;5030682;28;20033;-88
2021/11/13 10:56:47;;;;;;;19.85;13.13;;;11.10;99.90;;;;;;5014068;28;20052;-88
2021/11/13 10:59:14;;;;;;;17.77;12.03;;;11.20;99.90;;;;;;5014282;28;20056;-88
2021/11/13 11:01:48;;;;;;;16.27;10.80;;;11.20;99.90;;;;;;5014019;28;20037;-87
2021/11/13 11:04:26;;;;;;;16.48;10.43;;;11.30;99.90;;;;;;5030422;28;20166;-87
2021/11/13 11:07:04;;;;;;;15.52;10.10;;;11.20;99.90;;;;;;5010542;28;20061;-87
2021/11/13 11:09:42;;;;;;;14.05;10.20;;;11.20;99.90;;;;;;5010836;28;20049;-87
2021/11/13 11:12:11;;;;;;;15.68;10.27;;;11.20;99.90;;;;;;5010570;28;20041;-87
2021/11/13 11:14:39;;;;;;;15.05;10.18;;;11.20;99.90;;;;;;5018727;28;20085;-87
2021/11/13 11:17:13;;;;;;;14.20;10.10;;;11.20;99.90;;;;;;5013341;28;20053;-88
2021/11/13 11:19:40;;;;;;;15.00;10.57;;;11.30;99.90;;;;;;5013865;28;20241;-87
2021/11/13 11:22:07;;;;;;;14.02;10.63;;;11.40;99.90;;;;;;5013206;28;20033;-88
2021/11/13 11:24:46;;;;;;;17.00;10.90;;;11.30;99.90;;;;;;5013573;28;20025;-87
2021/11/13 11:27:15;;;;;;;15.43;9.87;;;11.30;99.90;;;;;;5013611;28;20037;-87
2021/11/13 11:30:07;;;;;;;17.50;11.63;;;11.30;99.90;;;;;;5030169;28;20370;-87
2021/11/13 11:32:40;;;;;;;15.18;10.63;;;11.40;99.90;;;;;;5013670;28;20029;-87
2021/11/13 11:35:19;;;;;;;16.50;11.02;;;11.40;99.90;;;;;;5029636;28;20029;-88
2021/11/13 11:37:55;;;;;;;16.75;11.15;;;11.40;99.90;;;;;;5029763;28;20073;-87
2021/11/13 11:40:26;;;;;;;18.00;11.27;;;11.30;99.90;;;;;;5013496;28;20040;-87
2021/11/13 11:42:51;;;;;;;16.48;10.98;;;11.30;99.90;;;;;;5029663;28;20065;-87
2021/11/13 11:45:21;;;;;;;15.73;10.40;;;11.40;99.90;;;;;;5013311;28;20393;-88
2021/11/13 11:47:49;;;;;;;15.82;10.00;;;11.40;99.90;;;;;;5012635;28;20054;-88
2021/11/13 11:50:17;;;;;;;17.88;11.90;;;11.50;99.90;;;;;;5029501;28;20033;-88
2021/11/13 11:52:46;;;;;;;17.45;11.68;;;11.40;99.90;;;;;;5013265;28;20079;-88
2021/11/13 11:55:14;;;;;;;16.33;10.40;;;11.50;99.90;;;;;;5013146;28;20033;-87
2021/11/13 11:57:43;;;;;;;14.73;10.35;;;11.50;99.90;;;;;;5012968;28;20045;-87
2021/11/13 12:00:17;;;;;;;14.85;11.13;;;11.40;99.90;;;;;;5012996;28;20207;-88
2021/11/13 12:02:50;;;;;;;16.75;11.45;;;11.40;99.90;;;;;;5013042;28;20041;-88
2021/11/13 12:05:22;;;;;;;17.52;12.82;;;11.40;99.90;;;;;;5012929;28;20060;-87
2021/11/13 12:07:52;;;;;;;17.83;11.07;;;11.40;99.90;;;;;;5012831;28;20064;-87
2021/11/13 12:10:26;;;;;;;19.50;13.15;;;11.40;99.90;;;;;;5029333;28;20053;-88
2021/11/13 12:13:04;;;;;;;17.00;11.57;;;11.40;99.90;;;;;;5029164;28;20034;-88
2021/11/13 12:15:31;;;;;;;17.10;11.77;;;11.40;99.90;;;;;;4997595;28;20099;-88
2021/11/13 12:18:14;;;;;;;16.83;10.82;;;11.50;99.90;;;;;;4995972;28;20056;-88
2021/11/13 12:20:40;;;;;;;13.48;9.55;;;11.40;99.90;;;;;;5027814;28;20064;-88
2021/11/13 12:23:10;;;;;;;12.77;8.93;;;11.50;99.90;;;;;;5012449;28;20033;-88
2021/11/13 12:25:38;;;;;;;14.60;10.25;;;11.50;99.90;;;;;;5011842;28;20029;-88
2021/11/13 12:28:21;;;;;;;14.30;10.35;;;11.50;99.90;;;;;;5012377;28;20025;-88
2021/11/13 12:31:09;;;;;;;16.60;10.10;;;11.50;99.90;;;;;;5028941;28;20085;-87
2021/11/13 12:33:34;;;;;;;13.15;9.45;;;11.50;99.90;;;;;;5028697;28;20033;-87
2021/11/13 12:36:01;;;;;;;12.60;9.30;;;11.40;99.90;;;;;;4998330;28;20060;-88
2021/11/13 12:38:30;;;;;;;15.68;8.80;;;11.50;99.90;;;;;;5007078;28;20061;-87
2021/11/13 12:41:15;;;;;;;12.70;8.77;;;11.50;99.90;;;;;;5012007;28;20543;-87
2021/11/13 12:43:55;;;;;;;13.20;8.10;;;11.50;99.90;;;;;;5011076;28;20034;-87